^^
Grace C. Lehan Memorial Weather Station Historical Data
Daily Summary for June 7, 2022 Units:  Metric    English   Both
Daily Weekly Monthly Yearly
  High: Low: Average:
Temperature: 21.8 °C 16.5 °C 18.9 °C
Dew Point: 17.5 °C 16 °C 16.7 °C
Humidity: 97% 74% 88%
Wind Speed: 5.8km/h 0km/h 0.5km/h
Wind Gust: 16.1km/h - -
Wind- - ESE
Pressure: 1017.2 hPa 1013.8 hPa -
Precipitation: 0 mm    
 
 
Tabular Data for June 7, 2022
Time Temperature Dew Point Pressure Wind Wind Speed Wind Gust Humidity Rainfall Rate (Hourly) solar
00:00 17.7 °C 17.2 °C 1017.2 hPa Calm   8 km/h 97% 0.25 mm 0 W/m2
00:09 17.6 °C 17.2 °C 1017.2 hPa ENE 0.6 km/h 8 km/h 97% 0.25 mm 0 W/m2
00:14 17.6 °C 17.1 °C 1017.2 hPa Calm   8 km/h 97% 0.25 mm 0 W/m2
00:19 17.6 °C 17.1 °C 1017.2 hPa Calm   8 km/h 97% 0.25 mm 0 W/m2
00:24 17.6 °C 17.1 °C 1017.2 hPa ENE 0.2 km/h 8 km/h 97% 0.25 mm 0 W/m2
00:29 17.6 °C 17.1 °C 1017.2 hPa Calm   8 km/h 97% 0.25 mm 0 W/m2
00:34 17.6 °C 17.1 °C 1017.2 hPa Calm   8 km/h 97% 0.25 mm 0 W/m2
00:35 17.6 °C 17.1 °C 1017.2 hPa Calm   3.2 km/h 97% 0 mm 0 W/m2
01:00 17.3 °C 16.8 °C 1016.8 hPa Calm   6.4 km/h 97% 0 mm 0 W/m2
01:30 17.2 °C 16.7 °C 1016.8 hPa Calm   14.5 km/h 97% 0 mm 0 W/m2
02:00 17 °C 16.5 °C 1016.5 hPa Calm   11.3 km/h 97% 0 mm 0 W/m2
02:30 16.9 °C 16.4 °C 1016.1 hPa Calm   14.5 km/h 97% 0 mm 0 W/m2
03:00 16.8 °C 16.3 °C 1015.8 hPa Calm   11.3 km/h 97% 0 mm 0 W/m2
03:30 16.7 °C 16.2 °C 1015.8 hPa Calm   11.3 km/h 97% 0 mm 0 W/m2
04:04 16.7 °C 16.2 °C 1015.8 hPa Calm     97% 0 mm 0 W/m2
04:09 16.7 °C 16.2 °C 1015.8 hPa NNW 0.5 km/h 9.7 km/h 97% 0 mm 0 W/m2
04:14 16.7 °C 16.2 °C 1015.8 hPa Calm   9.7 km/h 97% 0 mm 0 W/m2
04:19 16.6 °C 16.1 °C 1015.8 hPa Calm   9.7 km/h 97% 0 mm 0 W/m2
04:24 16.6 °C 16.1 °C 1015.8 hPa Calm   9.7 km/h 97% 0 mm 0 W/m2
04:29 16.6 °C 16.1 °C 1015.8 hPa Calm   9.7 km/h 97% 0 mm 0 W/m2
04:34 16.6 °C 16.1 °C 1015.8 hPa Calm   9.7 km/h 97% 0 mm 0 W/m2
04:39 16.6 °C 16.1 °C 1015.8 hPa NNW 0.3 km/h 6.4 km/h 97% 0 mm 0 W/m2
04:44 16.7 °C 16.2 °C 1015.8 hPa NNW 0.2 km/h 6.4 km/h 97% 0 mm 0 W/m2
04:49 16.7 °C 16.2 °C 1015.8 hPa Calm   6.4 km/h 97% 0 mm 0 W/m2
04:54 16.7 °C 16.2 °C 1015.8 hPa Calm   6.4 km/h 97% 0 mm 0 W/m2
04:59 16.7 °C 16.2 °C 1015.8 hPa Calm   6.4 km/h 97% 0 mm 0 W/m2
05:04 16.7 °C 16.2 °C 1015.8 hPa NNW 0.2 km/h 6.4 km/h 97% 0 mm 0 W/m2
05:09 16.7 °C 16.2 °C 1015.8 hPa Calm   3.2 km/h 97% 0 mm 0 W/m2
05:14 16.7 °C 16.2 °C 1015.8 hPa Calm   6.4 km/h 97% 0 mm 0 W/m2
05:19 16.7 °C 16.2 °C 1015.8 hPa Calm   6.4 km/h 97% 0 mm 0 W/m2
05:24 16.7 °C 16.2 °C 1016.1 hPa Calm   6.4 km/h 97% 0 mm 0 W/m2
05:29 16.7 °C 16.2 °C 1016.1 hPa Calm   6.4 km/h 97% 0 mm 0 W/m2
05:34 16.7 °C 16.2 °C 1016.5 hPa Calm   6.4 km/h 97% 0 mm 0 W/m2
05:39 16.7 °C 16.2 °C 1016.5 hPa Calm   1.6 km/h 97% 0 mm 0 W/m2
05:44 16.7 °C 16.2 °C 1016.5 hPa Calm   1.6 km/h 97% 0 mm 0 W/m2
05:49 16.6 °C 16.1 °C 1016.5 hPa Calm   1.6 km/h 97% 0 mm 0 W/m2
05:54 16.6 °C 16.1 °C 1016.5 hPa NNW 0.3 km/h 4.8 km/h 97% 0 mm 0 W/m2
05:59 16.6 °C 16.1 °C 1016.5 hPa Calm   4.8 km/h 97% 0 mm 0 W/m2
06:04 16.6 °C 16.1 °C 1016.5 hPa Calm   4.8 km/h 97% 0 mm 0 W/m2
06:09 16.6 °C 16.1 °C 1016.5 hPa Calm   1.6 km/h 97% 0 mm 0 W/m2
06:14 16.6 °C 16.1 °C 1016.5 hPa Calm   1.6 km/h 97% 0 mm 0 W/m2
06:19 16.6 °C 16.1 °C 1016.5 hPa Calm   1.6 km/h 97% 0 mm 0 W/m2
06:24 16.6 °C 16.1 °C 1016.5 hPa Calm   1.6 km/h 97% 0 mm 0 W/m2
06:29 16.6 °C 16.1 °C 1016.5 hPa Calm   1.6 km/h 97% 0 mm 0 W/m2
06:34 16.6 °C 16.1 °C 1016.5 hPa Calm   1.6 km/h 97% 0 mm 0 W/m2
06:39 16.6 °C 16.1 °C 1016.5 hPa Calm   1.6 km/h 97% 0 mm 0 W/m2
06:44 16.5 °C 16.1 °C 1016.5 hPa Calm   1.6 km/h 97% 0 mm 7 W/m2
06:49 16.5 °C 16 °C 1016.5 hPa Calm   1.6 km/h 97% 0 mm 9 W/m2
06:54 16.5 °C 16 °C 1016.8 hPa Calm   1.6 km/h 97% 0 mm 9 W/m2
06:59 16.5 °C 16 °C 1016.8 hPa Calm   1.6 km/h 97% 0 mm 12 W/m2
07:04 16.5 °C 16 °C 1016.8 hPa Calm   1.6 km/h 97% 0 mm 18 W/m2
07:09 16.6 °C 16.1 °C 1016.8 hPa NNE 0.3 km/h 4.8 km/h 97% 0 mm 26 W/m2
07:14 16.5 °C 16.1 °C 1016.8 hPa Calm   4.8 km/h 97% 0 mm 28 W/m2
07:19 16.5 °C 16.1 °C 1016.8 hPa NNE 0.2 km/h 4.8 km/h 97% 0 mm 26 W/m2
07:24 16.5 °C 16 °C 1016.8 hPa NW 0.8 km/h 11.3 km/h 97% 0 mm 30 W/m2
07:29 16.5 °C 16.1 °C 1016.8 hPa NNE 0.3 km/h 11.3 km/h 97% 0 mm 30 W/m2
07:34 16.5 °C 16 °C 1016.8 hPa ENE 0.6 km/h 11.3 km/h 97% 0 mm 35 W/m2
07:39 16.5 °C 16 °C 1016.8 hPa North 0.2 km/h 8 km/h 97% 0 mm 40 W/m2
07:44 16.5 °C 16 °C 1016.5 hPa NNW 0.2 km/h 8 km/h 97% 0 mm 44 W/m2
07:49 16.5 °C 16 °C 1016.5 hPa Calm   8 km/h 97% 0 mm 56 W/m2
07:54 16.5 °C 16.1 °C 1016.5 hPa Calm   8 km/h 97% 0 mm 72 W/m2
07:59 16.6 °C 16.1 °C 1016.5 hPa Calm   8 km/h 97% 0 mm 70 W/m2
08:04 16.6 °C 16.1 °C 1016.1 hPa North 2.1 km/h 6.4 km/h 97% 0 mm 77 W/m2
08:09 16.6 °C 16.1 °C 1016.5 hPa NNE 0.3 km/h 6.4 km/h 97% 0 mm 84 W/m2
08:14 16.6 °C 16.1 °C 1016.5 hPa Calm   6.4 km/h 97% 0 mm 111 W/m2
08:19 16.7 °C 16.2 °C 1016.5 hPa ENE 0.3 km/h 9.7 km/h 97% 0 mm 132 W/m2
08:24 16.7 °C 16.2 °C 1016.5 hPa ENE 0.3 km/h 9.7 km/h 97% 0 mm 130 W/m2
08:29 16.8 °C 16.3 °C 1016.5 hPa ENE 0.2 km/h 9.7 km/h 97% 0 mm 132 W/m2
08:34 16.8 °C 16.3 °C 1016.5 hPa Calm   9.7 km/h 97% 0 mm 141 W/m2
08:39 16.9 °C 16.4 °C 1016.5 hPa NNE 2.1 km/h 16.1 km/h 97% 0 mm 118 W/m2
08:44 16.9 °C 16.4 °C 1016.5 hPa ENE 0.8 km/h 16.1 km/h 97% 0 mm 118 W/m2
08:49 16.9 °C 16.4 °C 1016.5 hPa NE 1 km/h 16.1 km/h 97% 0 mm 90 W/m2
08:54 16.9 °C 16.4 °C 1016.5 hPa NE 1.1 km/h 16.1 km/h 97% 0 mm 93 W/m2
08:59 16.9 °C 16.4 °C 1016.5 hPa ENE 2.4 km/h 16.1 km/h 97% 0 mm 120 W/m2
09:04 16.9 °C 16.4 °C 1016.5 hPa ENE 2.1 km/h 16.1 km/h 97% 0 mm 141 W/m2
09:09 16.9 °C 16.4 °C 1016.5 hPa East 1.9 km/h 11.3 km/h 97% 0 mm 127 W/m2
09:14 17 °C 16.4 °C 1016.5 hPa ENE 3.5 km/h 14.5 km/h 96.6% 0 mm 130 W/m2
09:19 17.1 °C 16.4 °C 1016.5 hPa ENE 1.8 km/h 14.5 km/h 96% 0 mm 172 W/m2
09:24 17.2 °C 16.6 °C 1016.5 hPa NE 2.6 km/h 14.5 km/h 96% 0 mm 172 W/m2
09:29 17.3 °C 16.6 °C 1016.5 hPa ENE 1.1 km/h 14.5 km/h 96% 0 mm 120 W/m2
09:34 17.4 °C 16.6 °C 1016.5 hPa Calm   14.5 km/h 95.2% 0 mm 88 W/m2
09:39 17.4 °C 16.6 °C 1016.5 hPa East 0.3 km/h 9.7 km/h 95% 0 mm 88 W/m2
09:44 17.5 °C 16.7 °C 1016.5 hPa ENE 1.1 km/h 9.7 km/h 94.9% 0 mm 90 W/m2
09:49 17.5 °C 16.6 °C 1016.5 hPa NE 1.1 km/h 9.7 km/h 94% 0 mm 105 W/m2
09:54 17.6 °C 16.6 °C 1016.5 hPa ENE 2.3 km/h 14.5 km/h 93.8% 0 mm 125 W/m2
09:59 17.6 °C 16.4 °C 1016.5 hPa NE 1.1 km/h 14.5 km/h 93% 0 mm 130 W/m2
10:04 17.7 °C 16.5 °C 1016.8 hPa NE 4.3 km/h 16.1 km/h 93% 0 mm 135 W/m2
10:09 17.7 °C 16.6 °C 1016.5 hPa ENE 1.3 km/h 16.1 km/h 93% 0 mm 190 W/m2
10:14 17.8 °C 16.6 °C 1016.5 hPa NE 0.6 km/h 16.1 km/h 92.8% 0 mm 204 W/m2
10:19 17.9 °C 16.6 °C 1016.5 hPa ENE 0.5 km/h 16.1 km/h 92% 0 mm 197 W/m2
10:24 18.1 °C 16.8 °C 1016.5 hPa ENE 2.3 km/h 16.1 km/h 92% 0 mm 232 W/m2
10:29 18.2 °C 16.7 °C 1016.1 hPa East 1.8 km/h 16.1 km/h 90.8% 0 mm 232 W/m2
10:34 18.3 °C 16.7 °C 1016.5 hPa NE 0.5 km/h 16.1 km/h 90.2% 0 mm 181 W/m2
10:39 18.5 °C 16.8 °C 1016.5 hPa WNW 1.3 km/h 14.5 km/h 90% 0 mm 202 W/m2
10:44 18.6 °C 16.8 °C 1016.5 hPa East 0.3 km/h 14.5 km/h 89.4% 0 mm 251 W/m2
10:49 18.7 °C 16.8 °C 1016.5 hPa NE 1.6 km/h 16.1 km/h 88.8% 0 mm 301 W/m2
10:54 18.8 °C 16.9 °C 1016.5 hPa NE 0.8 km/h 16.1 km/h 88.4% 0 mm 311 W/m2
10:59 18.9 °C 16.8 °C 1016.5 hPa Calm   16.1 km/h 87.5% 0 mm 285 W/m2
11:04 19.1 °C 16.9 °C 1016.5 hPa Calm   16.1 km/h 87.4% 0 mm 330 W/m2
11:09 19.3 °C 17.2 °C 1016.1 hPa Calm   1.6 km/h 87.4% 0 mm 406 W/m2
11:14 19.6 °C 17.4 °C 1016.1 hPa NE 1.8 km/h 11.3 km/h 87.2% 0 mm 373 W/m2
11:19 19.7 °C 17 °C 1016.1 hPa ENE 5.8 km/h 16.1 km/h 84.7% 0 mm 299 W/m2
11:24 19.8 °C 17 °C 1016.1 hPa NE 1.3 km/h 16.1 km/h 84% 0 mm 227 W/m2
11:29 19.8 °C 16.9 °C 1016.1 hPa ENE 1.4 km/h 16.1 km/h 83.6% 0 mm 216 W/m2
11:34 19.9 °C 17.1 °C 1016.1 hPa NNE 0.3 km/h 16.1 km/h 83.8% 0 mm 274 W/m2
11:39 20 °C 17.2 °C 1016.1 hPa Calm   4.8 km/h 83.9% 0 mm 332 W/m2
11:44 20.1 °C 17.1 °C 1016.1 hPa NE 1.1 km/h 8 km/h 83% 0 mm 299 W/m2
11:49 20.1 °C 16.9 °C 1016.1 hPa ENE 0.6 km/h 8 km/h 81.9% 0 mm 244 W/m2
11:54 20.1 °C 17 °C 1016.1 hPa Calm   8 km/h 82.3% 0 mm 352 W/m2
11:59 20.1 °C 17.1 °C 1016.1 hPa ENE 0.6 km/h 8 km/h 82.6% 0 mm 406 W/m2
12:00 20.2 °C 17.2 °C 1016.1 hPa Calm   8 km/h 83% 0 mm 348 W/m2
12:09 20.3 °C 16.9 °C 1016.1 hPa ENE 2.9 km/h 11.3 km/h 80.4% 0 mm 415 W/m2
12:14 20.5 °C 17.2 °C 1015.8 hPa North 0.2 km/h 11.3 km/h 81.5% 0 mm 436 W/m2
12:19 20.8 °C 17.4 °C 1015.8 hPa NNW 0.6 km/h 11.3 km/h 81.2% 0 mm 436 W/m2
12:24 20.9 °C 17.2 °C 1015.8 hPa ENE 1.1 km/h 14.5 km/h 79% 0 mm 413 W/m2
12:29 21 °C 17.2 °C 1015.8 hPa ENE 0.8 km/h 14.5 km/h 78.8% 0 mm 413 W/m2
12:34 21.1 °C 17.3 °C 1015.8 hPa North 1 km/h 16.1 km/h 79% 0 mm 397 W/m2
12:39 21.2 °C 17.2 °C 1015.8 hPa ENE 1.1 km/h 16.1 km/h 78.1% 0 mm 343 W/m2
12:44 21.2 °C 17.2 °C 1015.8 hPa NW 0.3 km/h 16.1 km/h 78% 0 mm 265 W/m2
12:49 21.1 °C 17.2 °C 1015.8 hPa Calm   16.1 km/h 78.3% 0 mm 246 W/m2
12:54 21.1 °C 17.2 °C 1015.8 hPa Calm   16.1 km/h 78.4% 0 mm 244 W/m2
12:59 21.1 °C 17.2 °C 1015.8 hPa NW 0.5 km/h 16.1 km/h 78.4% 0 mm 246 W/m2
13:04 21.2 °C 17.3 °C 1015.8 hPa NE 0.5 km/h 16.1 km/h 78.5% 0 mm 241 W/m2
13:09 21.1 °C 17.1 °C 1015.5 hPa NE 1.1 km/h 8 km/h 77.5% 0 mm 258 W/m2
13:14 21.2 °C 17.2 °C 1015.5 hPa Calm   8 km/h 77.8% 0 mm 248 W/m2
13:19 21.2 °C 17.2 °C 1015.5 hPa Calm   8 km/h 78% 0 mm 225 W/m2
13:24 21.2 °C 17.2 °C 1015.5 hPa NE 0.6 km/h 8 km/h 77.9% 0 mm 179 W/m2
13:29 21.2 °C 17.1 °C 1015.5 hPa ENE 0.6 km/h 8 km/h 77.3% 0 mm 236 W/m2
13:34 21.2 °C 16.8 °C 1015.5 hPa ENE 0.6 km/h 8 km/h 76.3% 0 mm 250 W/m2
13:39 21.2 °C 17.2 °C 1015.5 hPa NNW 0.2 km/h 6.4 km/h 78.2% 0 mm 260 W/m2
13:44 21.3 °C 17.2 °C 1015.5 hPa ENE 1 km/h 11.3 km/h 77.8% 0 mm 251 W/m2
13:49 21.3 °C 17.3 °C 1015.5 hPa Calm   11.3 km/h 78.1% 0 mm 221 W/m2
13:54 21.4 °C 17.4 °C 1015.5 hPa NE 0.5 km/h 11.3 km/h 78% 0 mm 123 W/m2
13:59 21.4 °C 17.1 °C 1015.5 hPa NE 1.6 km/h 11.3 km/h 76.3% 0 mm 120 W/m2
14:04 21.3 °C 17.1 °C 1015.5 hPa NE 0.5 km/h 11.3 km/h 76.5% 0 mm 186 W/m2
14:09 21.3 °C 17.1 °C 1015.5 hPa NE 0.8 km/h 8 km/h 77% 0 mm 244 W/m2
14:14 21.3 °C 17.1 °C 1015.1 hPa Calm   8 km/h 76.7% 0 mm 258 W/m2
14:19 21.4 °C 17.1 °C 1015.1 hPa NE 0.5 km/h 8 km/h 76.6% 0 mm 236 W/m2
14:24 21.4 °C 17.1 °C 1015.1 hPa Calm   8 km/h 76.3% 0 mm 251 W/m2
14:29 21.6 °C 17.3 °C 1015.1 hPa ENE 1.1 km/h 9.7 km/h 76.7% 0 mm 246 W/m2
14:34 21.7 °C 17.4 °C 1015.1 hPa NE 1 km/h 9.7 km/h 76.8% 0 mm 162 W/m2
15:00 21.3 °C 16.9 °C 1014.8 hPa Calm   8 km/h 76% 0 mm 89 W/m2
15:30 21.8 °C 16.9 °C 1014.4 hPa Calm   6.4 km/h 74% 0 mm 205 W/m2
16:04 21.8 °C 16.9 °C 1014.4 hPa Calm   6.4 km/h 74% 0 mm 205 W/m2
16:09 21.5 °C 17.4 °C 1014.1 hPa Calm     77.4% 0 mm 162 W/m2
16:14 21.5 °C 17.5 °C 1014.1 hPa Calm   1.6 km/h 77.9% 0 mm 125 W/m2
16:19 21.5 °C 17.2 °C 1014.1 hPa Calm   1.6 km/h 76.4% 0 mm 165 W/m2
16:24 21.5 °C 17.2 °C 1014.1 hPa Calm   1.6 km/h 76.3% 0 mm 186 W/m2
16:29 21.6 °C 17.2 °C 1014.1 hPa NE 0.8 km/h 8 km/h 76.2% 0 mm 209 W/m2
16:34 21.7 °C 17.2 °C 1014.1 hPa NE 0.5 km/h 8 km/h 75.8% 0 mm 209 W/m2
16:39 21.7 °C 17.2 °C 1013.8 hPa Calm   6.4 km/h 75.2% 0 mm 174 W/m2
16:44 21.8 °C 17.2 °C 1013.8 hPa NE 0.3 km/h 6.4 km/h 75% 0 mm 105 W/m2
16:49 21.8 °C 17 °C 1014.1 hPa NE 0.5 km/h 6.4 km/h 74.3% 0 mm 83 W/m2
16:54 21.7 °C 17.1 °C 1014.1 hPa Calm   6.4 km/h 75% 0 mm 74 W/m2
16:59 21.6 °C 17.1 °C 1014.1 hPa NE 0.5 km/h 6.4 km/h 75.1% 0 mm 76 W/m2
17:04 21.6 °C 17.1 °C 1014.1 hPa NE 0.5 km/h 6.4 km/h 75.7% 0 mm 100 W/m2
17:09 21.6 °C 17.2 °C 1014.1 hPa Calm   6.4 km/h 76.2% 0 mm 121 W/m2
17:14 21.5 °C 17.1 °C 1014.1 hPa ENE 1.9 km/h 8 km/h 76.2% 0 mm 125 W/m2
17:19 21.5 °C 17.1 °C 1014.1 hPa ENE 0.5 km/h 8 km/h 76% 0 mm 116 W/m2
17:24 21.4 °C 16.9 °C 1014.1 hPa ENE 1 km/h 8 km/h 75.4% 0 mm 81 W/m2
17:29 21.4 °C 17.1 °C 1014.1 hPa Calm   8 km/h 76% 0 mm 77 W/m2
17:34 21.4 °C 17.1 °C 1013.8 hPa ENE 0.8 km/h 9.7 km/h 76.3% 0 mm 70 W/m2
17:39 21.4 °C 17 °C 1013.8 hPa Calm   9.7 km/h 76% 0 mm 56 W/m2
17:44 21.3 °C 16.9 °C 1013.8 hPa ENE 1.1 km/h 9.7 km/h 76% 0 mm 54 W/m2
17:49 21.3 °C 16.9 °C 1013.8 hPa Calm   9.7 km/h 76% 0 mm 69 W/m2
17:54 21.2 °C 16.9 °C 1013.8 hPa ENE 0.2 km/h 9.7 km/h 76.7% 0 mm 69 W/m2
17:59 21.2 °C 16.8 °C 1013.8 hPa Calm   9.7 km/h 76% 0 mm 63 W/m2
18:04 21.2 °C 16.8 °C 1013.8 hPa ENE 0.2 km/h 9.7 km/h 76% 0 mm 54 W/m2
18:09 21.2 °C 16.8 °C 1013.8 hPa Calm   6.4 km/h 76.4% 0 mm 49 W/m2
18:14 21.2 °C 17 °C 1014.1 hPa Calm   6.4 km/h 77% 0 mm 37 W/m2
18:19 21.2 °C 16.9 °C 1014.1 hPa Calm   6.4 km/h 77% 0 mm 28 W/m2
18:24 21.1 °C 16.9 °C 1014.1 hPa Calm   6.4 km/h 77% 0 mm 30 W/m2
18:29 21.1 °C 16.9 °C 1013.8 hPa Calm   6.4 km/h 77% 0 mm 26 W/m2
18:34 21.1 °C 16.9 °C 1013.8 hPa ENE 0.2 km/h 6.4 km/h 77% 0 mm 23 W/m2
18:39 21 °C 16.9 °C 1014.1 hPa Calm   4.8 km/h 77.3% 0 mm 19 W/m2
18:44 20.9 °C 16.8 °C 1014.1 hPa Calm   4.8 km/h 77.2% 0 mm 18 W/m2
18:49 20.9 °C 16.8 °C 1014.1 hPa Calm   4.8 km/h 77.1% 0 mm 11 W/m2
18:54 20.9 °C 16.8 °C 1014.1 hPa Calm   4.8 km/h 77.6% 0 mm 5 W/m2
18:59 20.8 °C 16.8 °C 1014.1 hPa Calm   4.8 km/h 78% 0 mm 5 W/m2
19:04 20.8 °C 16.8 °C 1013.8 hPa ENE 0.3 km/h 8 km/h 78% 0 mm 0 W/m2
19:09 20.7 °C 16.7 °C 1014.1 hPa Calm   8 km/h 77.8% 0 mm 0 W/m2
19:14 20.7 °C 16.7 °C 1013.8 hPa Calm   8 km/h 78% 0 mm 0 W/m2
19:19 20.6 °C 16.7 °C 1013.8 hPa Calm   8 km/h 78% 0 mm 0 W/m2
19:23 20.6 °C 16.6 °C 1013.8 hPa Calm   8 km/h 78% 0 mm 0 W/m2
Hartford County Weather
Compliments of Weather Underground - 2 mb